createdAt,value
2018-08-28T00:00:14.972Z,80.05
2018-08-28T00:01:14.940Z,80.15
2018-08-28T00:03:08.260Z,79.61
2018-08-28T00:04:08.206Z,80.53
2018-08-28T00:06:01.516Z,79.80
2018-08-28T00:07:01.483Z,80.34
2018-08-28T00:08:54.821Z,80.15
2018-08-28T00:09:54.771Z,79.57
2018-08-28T00:11:48.121Z,80.05
2018-08-28T00:12:48.068Z,80.38
2018-08-28T00:14:41.381Z,80.05
2018-08-28T00:15:41.341Z,80.24
2018-08-28T00:17:34.660Z,80.15
2018-08-28T00:18:34.611Z,80.24
2018-08-28T00:20:27.926Z,80.43
2018-08-28T00:21:27.887Z,80.63
2018-08-28T00:23:21.221Z,80.63
2018-08-28T00:24:21.173Z,80.63
2018-08-28T00:26:14.506Z,80.73
2018-08-28T00:27:14.447Z,80.63
2018-08-28T00:29:07.760Z,80.82
2018-08-28T00:30:07.727Z,80.73
2018-08-28T00:32:01.029Z,80.82
2018-08-28T00:33:01.006Z,80.91
2018-08-28T00:34:54.335Z,81.40
2018-08-28T00:35:54.281Z,81.40
2018-08-28T00:37:47.631Z,81.10
2018-08-28T00:38:47.571Z,81.30
2018-08-28T00:40:40.891Z,80.82
2018-08-28T00:41:40.834Z,80.73
2018-08-28T00:43:33.667Z,81.01
2018-08-28T00:44:33.628Z,81.30
2018-08-28T00:46:26.932Z,81.30
2018-08-28T00:47:26.887Z,80.91
2018-08-28T00:49:20.207Z,81.49
2018-08-28T00:50:20.153Z,81.40
2018-08-28T00:52:13.027Z,81.59
2018-08-28T00:53:12.955Z,81.20
2018-08-28T00:55:06.268Z,81.20
2018-08-28T00:56:06.221Z,81.78
2018-08-28T00:57:59.529Z,81.68
2018-08-28T00:58:59.497Z,81.78
2018-08-28T01:00:52.809Z,81.78
2018-08-28T01:01:52.769Z,81.78
2018-08-28T01:03:46.079Z,81.97
2018-08-28T01:04:46.038Z,81.68
2018-08-28T01:06:39.407Z,82.26
2018-08-28T01:07:39.328Z,82.07
2018-08-28T01:09:32.645Z,81.97
2018-08-28T01:10:32.598Z,82.79
2018-08-28T01:12:25.439Z,82.41
2018-08-28T01:13:25.403Z,82.51
2018-08-28T01:15:18.729Z,82.31
2018-08-28T01:16:18.670Z,82.70
2018-08-28T01:18:11.998Z,82.89
2018-08-28T01:19:11.941Z,82.79
2018-08-28T01:21:04.765Z,83.18
2018-08-28T01:22:04.719Z,83.27
2018-08-28T01:23:58.020Z,83.27
2018-08-28T01:24:57.984Z,83.47
2018-08-28T01:26:51.345Z,83.37
2018-08-28T01:27:51.290Z,83.37
2018-08-28T01:29:44.600Z,84.14
2018-08-28T01:30:44.568Z,84.38
2018-08-28T01:32:37.881Z,84.95
2018-08-28T01:33:37.841Z,84.19
2018-08-28T01:35:30.673Z,85.25
2018-08-28T01:36:30.628Z,84.58
2018-08-28T01:38:23.919Z,85.25
2018-08-28T01:39:23.894Z,85.44
2018-08-28T01:41:17.214Z,85.53
2018-08-28T01:42:17.160Z,85.82
2018-08-28T01:44:09.971Z,86.40
2018-08-28T01:45:09.936Z,86.58
2018-08-28T01:47:03.258Z,86.01
2018-08-28T01:48:03.218Z,86.58
2018-08-28T01:49:56.544Z,86.49
2018-08-28T01:50:56.493Z,86.97
2018-08-28T01:52:49.814Z,86.83
2018-08-28T01:53:49.767Z,86.83
2018-08-28T01:55:43.077Z,87.12
2018-08-28T01:56:43.035Z,86.93
2018-08-28T01:58:36.360Z,87.21
2018-08-28T01:59:36.325Z,86.93
2018-08-28T02:01:29.630Z,88.08
2018-08-28T02:02:29.580Z,87.79
2018-08-28T02:04:22.884Z,87.60
2018-08-28T02:05:22.851Z,88.46
2018-08-28T02:07:15.670Z,88.37
2018-08-28T02:08:15.625Z,88.17
2018-08-28T02:10:08.434Z,88.17
2018-08-28T02:11:08.400Z,88.37
2018-08-28T02:13:01.768Z,88.75
2018-08-28T02:14:01.706Z,88.75
2018-08-28T02:15:55.015Z,89.04
2018-08-28T02:16:54.981Z,88.61
2018-08-28T02:18:48.315Z,88.56
2018-08-28T02:19:48.262Z,88.70
2018-08-28T02:21:41.556Z,88.99
2018-08-28T02:22:41.532Z,88.51
2018-08-28T02:24:34.343Z,89.09
2018-08-28T02:25:34.297Z,89.28
2018-08-28T02:27:27.600Z,89.47
2018-08-28T02:28:27.572Z,89.76
2018-08-28T02:30:20.386Z,90.23
2018-08-28T02:31:20.351Z,90.23
2018-08-28T02:33:14.662Z,90.14
2018-08-28T02:34:14.616Z,90.23
2018-08-28T02:36:07.944Z,89.76
2018-08-28T02:37:07.887Z,90.05
2018-08-28T02:39:01.186Z,90.14
2018-08-28T02:40:01.152Z,90.53
2018-08-28T02:41:53.982Z,91.29
2018-08-28T02:42:53.937Z,91.05
2018-08-28T02:44:47.263Z,91.44
2018-08-28T02:45:47.216Z,91.15
2018-08-28T02:47:40.534Z,91.25
2018-08-28T02:48:40.493Z,91.92
2018-08-28T02:50:33.809Z,91.72
2018-08-28T02:51:33.762Z,92.11
2018-08-28T02:53:26.563Z,92.58
2018-08-28T02:54:26.531Z,92.58
2018-08-28T02:56:19.934Z,92.68
2018-08-28T02:57:19.812Z,92.40
2018-08-28T02:59:13.127Z,92.11
2018-08-28T03:00:13.077Z,91.92
2018-08-28T03:02:06.383Z,92.11
2018-08-28T03:03:06.402Z,92.78
2018-08-28T03:04:59.669Z,92.58
2018-08-28T03:05:59.628Z,92.78
2018-08-28T03:07:52.923Z,92.40
2018-08-28T03:08:52.887Z,92.87
2018-08-28T03:10:46.211Z,92.68
2018-08-28T03:11:46.158Z,93.07
2018-08-28T03:13:39.462Z,93.07
2018-08-28T03:14:39.436Z,93.07
2018-08-28T03:16:32.737Z,92.92
2018-08-28T03:17:32.701Z,93.21
2018-08-28T03:19:25.504Z,93.02
2018-08-28T03:20:25.469Z,93.02
2018-08-28T03:22:18.784Z,92.83
2018-08-28T03:23:18.750Z,93.12
2018-08-28T03:25:12.058Z,93.40
2018-08-28T03:26:12.012Z,93.50
2018-08-28T03:28:05.314Z,93.79
2018-08-28T03:29:05.314Z,94.65
2018-08-28T03:30:58.657Z,94.65
2018-08-28T03:31:58.559Z,94.65
2018-08-28T03:33:51.870Z,94.36
2018-08-28T03:34:51.834Z,93.50
2018-08-28T03:36:45.144Z,94.36
2018-08-28T03:37:45.089Z,94.07
2018-08-28T03:39:38.403Z,94.45
2018-08-28T03:40:38.370Z,94.84
2018-08-28T03:42:31.690Z,94.45
2018-08-28T03:43:31.644Z,94.84
2018-08-28T03:45:24.951Z,94.74
2018-08-28T03:46:24.916Z,94.74
2018-08-28T03:48:18.234Z,94.93
2018-08-28T03:49:18.188Z,94.84
2018-08-28T03:51:11.499Z,94.98
2018-08-28T03:52:11.450Z,94.89
2018-08-28T03:54:04.755Z,94.21
2018-08-28T03:55:04.719Z,94.98
2018-08-28T03:56:57.544Z,94.60
2018-08-28T03:57:57.494Z,94.89
2018-08-28T03:59:50.805Z,94.41
2018-08-28T04:00:50.761Z,94.50
2018-08-28T04:02:44.080Z,94.50
2018-08-28T04:03:44.093Z,94.02
2018-08-28T04:05:37.332Z,93.84
2018-08-28T04:06:37.300Z,93.64
2018-08-28T04:08:30.616Z,94.02
2018-08-28T04:09:30.576Z,93.84
2018-08-28T04:11:23.869Z,94.02
2018-08-28T04:12:23.826Z,94.21
2018-08-28T04:14:17.154Z,94.12
2018-08-28T04:15:17.111Z,93.93
2018-08-28T04:17:10.488Z,94.41
2018-08-28T04:18:10.371Z,94.60
2018-08-28T04:20:03.185Z,94.70
2018-08-28T04:21:03.140Z,94.46
2018-08-28T04:22:56.490Z,94.93
2018-08-28T04:23:56.416Z,94.74
2018-08-28T04:25:49.737Z,95.03
2018-08-28T04:26:49.712Z,95.51
2018-08-28T04:28:43.030Z,95.70
2018-08-28T04:29:42.981Z,96.08
2018-08-28T04:31:35.788Z,96.27
2018-08-28T04:32:35.760Z,96.08
2018-08-28T04:34:29.076Z,96.37
2018-08-28T04:35:29.022Z,96.08
2018-08-28T04:37:23.322Z,96.18
2018-08-28T04:38:23.306Z,96.08
2018-08-28T04:40:16.106Z,96.27
2018-08-28T04:41:16.066Z,96.08
2018-08-28T04:43:09.382Z,96.18
2018-08-28T04:44:09.324Z,95.98
2018-08-28T04:46:02.128Z,96.37
2018-08-28T04:47:02.099Z,96.66
2018-08-28T04:48:55.496Z,96.56
2018-08-28T04:49:55.372Z,96.66
2018-08-28T04:51:48.667Z,96.75
2018-08-28T04:52:48.638Z,96.56
2018-08-28T04:54:41.941Z,96.56
2018-08-28T04:55:41.897Z,96.37
2018-08-28T04:57:35.198Z,96.27
2018-08-28T04:58:35.162Z,96.37
2018-08-28T05:00:28.470Z,96.27
2018-08-28T05:01:28.431Z,97.04
2018-08-28T05:03:21.242Z,97.04
2018-08-28T05:04:21.210Z,96.56
2018-08-28T05:06:14.532Z,96.94
2018-08-28T05:07:14.473Z,96.47
2018-08-28T05:09:07.779Z,96.37
2018-08-28T05:10:07.745Z,96.37
2018-08-28T05:12:01.053Z,97.04
2018-08-28T05:13:01.014Z,96.94
2018-08-28T05:14:53.824Z,96.94
2018-08-28T05:15:53.797Z,96.56
2018-08-28T05:17:47.079Z,97.04
2018-08-28T05:18:47.048Z,96.66
2018-08-28T05:20:39.864Z,96.75
2018-08-28T05:21:39.816Z,96.66
2018-08-28T05:23:33.114Z,96.94
2018-08-28T05:24:33.085Z,97.13
2018-08-28T05:26:26.404Z,97.13
2018-08-28T05:27:26.358Z,97.04
2018-08-28T05:29:19.683Z,97.23
2018-08-28T05:30:19.626Z,97.13
2018-08-28T05:32:12.935Z,97.52
2018-08-28T05:33:12.885Z,97.42
2018-08-28T05:35:05.704Z,97.33
2018-08-28T05:36:05.655Z,97.33
2018-08-28T05:37:59.010Z,97.71
2018-08-28T05:38:58.939Z,97.42
2018-08-28T05:40:52.254Z,97.23
2018-08-28T05:41:52.200Z,97.04
2018-08-28T05:43:45.525Z,97.33
2018-08-28T05:44:45.476Z,97.33
2018-08-28T05:46:38.791Z,97.52
2018-08-28T05:47:38.740Z,97.13
2018-08-28T05:49:32.100Z,97.13
2018-08-28T05:50:32.011Z,97.13
2018-08-28T05:52:24.825Z,97.33
2018-08-28T05:53:24.793Z,97.18
2018-08-28T05:55:18.072Z,97.13
2018-08-28T05:56:18.164Z,97.08
2018-08-28T05:58:10.870Z,96.84
2018-08-28T05:59:10.816Z,97.08
2018-08-28T06:01:04.139Z,97.08
2018-08-28T06:02:04.093Z,96.89
2018-08-28T06:03:57.390Z,96.99
2018-08-28T06:04:57.357Z,96.99
2018-08-28T06:06:50.670Z,96.89
2018-08-28T06:07:50.615Z,96.42
2018-08-28T06:09:43.919Z,96.51
2018-08-28T06:10:43.882Z,96.61
2018-08-28T06:12:36.705Z,96.13
2018-08-28T06:13:36.656Z,96.42
2018-08-28T06:15:29.959Z,96.61
2018-08-28T06:16:29.913Z,96.22
2018-08-28T06:18:23.236Z,96.37
2018-08-28T06:19:23.193Z,96.22
2018-08-28T06:21:15.995Z,96.47
2018-08-28T06:22:15.957Z,96.37
2018-08-28T06:24:09.272Z,96.18
2018-08-28T06:25:09.227Z,96.47
2018-08-28T06:27:02.546Z,96.56
2018-08-28T06:28:02.491Z,96.56
2018-08-28T06:29:55.790Z,96.27
2018-08-28T06:30:55.777Z,96.18
2018-08-28T06:32:49.081Z,95.61
2018-08-28T06:33:49.083Z,96.27
2018-08-28T06:35:41.951Z,96.66
2018-08-28T06:36:41.803Z,96.22
2018-08-28T06:38:35.131Z,96.13
2018-08-28T06:39:35.087Z,96.03
2018-08-28T06:41:27.890Z,96.61
2018-08-28T06:42:27.852Z,95.65
2018-08-28T06:44:21.178Z,95.75
2018-08-28T06:45:21.121Z,96.61
2018-08-28T06:47:13.937Z,95.56
2018-08-28T06:48:13.912Z,95.36
2018-08-28T06:50:07.208Z,95.46
2018-08-28T06:51:07.168Z,95.36
2018-08-28T06:53:00.476Z,95.46
2018-08-28T06:54:00.438Z,95.03
2018-08-28T06:55:53.238Z,95.03
2018-08-28T06:56:53.244Z,95.12
2018-08-28T06:58:46.529Z,94.55
2018-08-28T06:59:46.470Z,94.45
2018-08-28T07:01:39.777Z,94.26
2018-08-28T07:02:39.748Z,93.02
2018-08-28T07:04:33.072Z,92.92
2018-08-28T07:05:33.024Z,92.73
2018-08-28T07:07:26.327Z,92.87
2018-08-28T07:08:26.293Z,92.10
2018-08-28T07:10:19.643Z,91.91
2018-08-28T07:11:19.547Z,91.43
2018-08-28T07:13:12.368Z,90.95
2018-08-28T07:14:12.329Z,90.38
2018-08-28T07:16:05.153Z,90.52
2018-08-28T07:17:05.113Z,89.85
2018-08-28T07:18:58.404Z,89.94
2018-08-28T07:19:58.380Z,89.27
2018-08-28T07:21:51.194Z,89.18
2018-08-28T07:22:51.153Z,89.08
2018-08-28T07:24:44.453Z,88.98
2018-08-28T07:25:44.559Z,88.89
2018-08-28T07:27:37.257Z,87.74
2018-08-28T07:28:37.203Z,88.55
2018-08-28T07:30:30.519Z,88.26
2018-08-28T07:31:30.553Z,88.07
2018-08-28T07:33:23.774Z,88.45
2018-08-28T07:34:23.744Z,87.68
2018-08-28T07:36:17.065Z,87.40
2018-08-28T07:37:17.069Z,87.11
2018-08-28T07:39:10.328Z,87.30
2018-08-28T07:40:10.302Z,86.19
2018-08-28T07:42:03.619Z,84.95
2018-08-28T07:43:03.580Z,85.04
2018-08-28T07:44:56.889Z,85.04
2018-08-28T07:45:56.849Z,84.08
2018-08-28T07:47:50.164Z,84.75
2018-08-28T07:48:50.119Z,84.27
2018-08-28T07:50:43.422Z,84.47
2018-08-28T07:51:43.384Z,84.56
2018-08-28T07:53:36.719Z,83.36
2018-08-28T07:54:36.662Z,82.78
2018-08-28T07:56:29.966Z,82.49
2018-08-28T07:57:29.942Z,82.78
2018-08-28T07:59:23.261Z,82.49
2018-08-28T08:00:23.210Z,82.10
2018-08-28T08:02:16.535Z,82.78
2018-08-28T08:03:16.481Z,82.30
2018-08-28T08:05:09.811Z,82.10
2018-08-28T08:06:09.756Z,81.05
2018-08-28T08:08:03.093Z,81.86
2018-08-28T08:09:03.043Z,80.99
2018-08-28T08:10:56.345Z,80.28
2018-08-28T08:11:56.316Z,80.42
2018-08-28T08:13:49.632Z,78.59
2018-08-28T08:14:49.597Z,78.88
2018-08-28T08:16:42.897Z,79.46
2018-08-28T08:17:42.877Z,78.98
2018-08-28T08:19:36.201Z,77.83
2018-08-28T08:20:36.161Z,77.53
2018-08-28T08:22:29.475Z,76.81
2018-08-28T08:23:29.431Z,77.67
2018-08-28T08:25:22.256Z,77.86
2018-08-28T08:26:22.218Z,78.06
2018-08-28T08:28:15.083Z,76.14
2018-08-28T08:29:14.993Z,75.75
2018-08-28T08:31:08.307Z,73.96
2018-08-28T08:32:08.269Z,73.96
2018-08-28T08:34:01.598Z,73.00
2018-08-28T08:35:01.543Z,72.03
2018-08-28T08:36:54.848Z,71.55
2018-08-28T08:37:54.817Z,70.11
2018-08-28T08:39:48.166Z,71.46
2018-08-28T08:40:48.102Z,71.65
2018-08-28T08:42:41.408Z,70.72
2018-08-28T08:43:41.373Z,69.85
2018-08-28T08:45:34.697Z,69.57
2018-08-28T08:46:34.653Z,69.76
2018-08-28T08:48:27.957Z,68.99
2018-08-28T08:49:27.918Z,67.97
2018-08-28T08:51:20.752Z,68.26
2018-08-28T08:52:20.715Z,66.33
2018-08-28T08:54:14.024Z,65.17
2018-08-28T08:55:13.982Z,66.24
2018-08-28T08:57:07.355Z,66.81
2018-08-28T08:58:07.282Z,66.27
2018-08-28T09:00:00.609Z,66.17
2018-08-28T09:01:00.567Z,67.71
2018-08-28T09:02:53.862Z,65.30
2018-08-28T09:03:53.832Z,62.99
2018-08-28T09:05:47.147Z,61.25
2018-08-28T09:06:47.115Z,59.81
2018-08-28T09:08:40.413Z,58.37
2018-08-28T09:09:40.384Z,60.20
2018-08-28T09:11:33.717Z,57.50
2018-08-28T09:12:33.668Z,57.50
2018-08-28T09:14:26.988Z,58.85
2018-08-28T09:15:26.949Z,60.20
2018-08-28T09:17:20.259Z,61.29
2018-08-28T09:18:20.219Z,60.71
2018-08-28T09:20:13.038Z,58.27
2018-08-28T09:21:13.013Z,59.65
2018-08-28T09:23:06.339Z,58.30
2018-08-28T09:24:06.288Z,58.75
2018-08-28T09:25:59.618Z,60.61
2018-08-28T09:26:59.568Z,59.07
2018-08-28T09:28:52.882Z,59.65
2018-08-28T09:29:52.848Z,60.03
2018-08-28T09:31:46.259Z,58.78
2018-08-28T09:32:46.140Z,58.78
2018-08-28T09:34:39.450Z,58.59
2018-08-28T09:35:39.420Z,58.78
2018-08-28T09:37:32.733Z,59.17
2018-08-28T09:38:32.720Z,59.30
2018-08-28T09:40:26.030Z,59.78
2018-08-28T09:41:26.000Z,58.72
2018-08-28T09:43:19.338Z,57.07
2018-08-28T09:44:19.308Z,57.94
2018-08-28T09:46:12.600Z,58.07
2018-08-28T09:47:12.574Z,57.20
2018-08-28T09:49:05.904Z,57.46
2018-08-28T09:50:05.857Z,57.20
2018-08-28T09:51:59.180Z,58.55
2018-08-28T09:52:59.135Z,57.78
2018-08-28T09:54:52.449Z,58.17
2018-08-28T09:55:52.416Z,57.49
2018-08-28T09:57:45.744Z,58.10
2018-08-28T09:58:45.712Z,57.23
2018-08-28T10:00:39.016Z,57.90
2018-08-28T10:01:38.998Z,57.32
2018-08-28T10:03:32.312Z,56.74
2018-08-28T10:04:32.266Z,57.04
2018-08-28T10:06:25.586Z,56.96
2018-08-28T10:07:25.556Z,57.64
2018-08-28T10:09:18.877Z,57.19
2018-08-28T10:10:18.837Z,56.32
2018-08-28T10:12:12.155Z,56.03
2018-08-28T10:13:12.141Z,56.15
2018-08-28T10:15:05.457Z,53.25
2018-08-28T10:16:05.417Z,51.87
2018-08-28T10:17:58.752Z,52.07
2018-08-28T10:18:58.691Z,53.97
2018-08-28T10:20:52.022Z,55.16
2018-08-28T10:21:52.005Z,54.49
2018-08-28T10:23:44.823Z,55.55
2018-08-28T10:24:44.786Z,55.45
2018-08-28T10:26:38.106Z,54.58
2018-08-28T10:27:38.070Z,54.80
2018-08-28T10:29:31.391Z,52.84
2018-08-28T10:30:31.445Z,53.71
2018-08-28T10:32:24.669Z,53.38
2018-08-28T10:33:24.647Z,50.70
2018-08-28T10:35:17.470Z,48.52
2018-08-28T10:36:17.427Z,48.83
2018-08-28T10:38:10.794Z,47.69
2018-08-28T10:39:10.717Z,44.78
2018-08-28T10:41:04.062Z,46.24
2018-08-28T10:42:04.018Z,46.16
2018-08-28T10:43:57.377Z,44.71
2018-08-28T10:44:57.316Z,43.26
2018-08-28T10:46:50.886Z,42.99
2018-08-28T10:47:50.618Z,42.99
2018-08-28T10:49:43.963Z,43.41
2018-08-28T10:50:43.926Z,41.30
2018-08-28T10:52:37.230Z,40.08
2018-08-28T10:53:37.198Z,39.12
2018-08-28T10:55:30.538Z,37.10
2018-08-28T10:56:30.498Z,37.00
2018-08-28T10:58:23.829Z,36.63
2018-08-28T10:59:23.801Z,35.46
2018-08-28T11:01:17.132Z,36.04
2018-08-28T11:02:17.093Z,34.48
2018-08-28T11:04:10.420Z,37.01
2018-08-28T11:05:10.401Z,38.15
2018-08-28T11:07:03.753Z,39.28
2018-08-28T11:08:03.769Z,38.03
2018-08-28T11:09:57.069Z,37.48
2018-08-28T11:10:57.023Z,36.35
2018-08-28T11:12:50.352Z,35.00
2018-08-28T11:13:50.329Z,33.33
2018-08-28T11:15:43.678Z,35.05
2018-08-28T11:16:43.632Z,34.47
2018-08-28T11:18:36.960Z,35.77
2018-08-28T11:19:36.944Z,34.42
2018-08-28T11:21:30.294Z,33.77
2018-08-28T11:22:30.253Z,32.62
2018-08-28T11:24:23.581Z,31.74
2018-08-28T11:25:23.551Z,31.16
2018-08-28T11:27:16.892Z,32.35
2018-08-28T11:28:16.854Z,30.98
2018-08-28T11:30:10.193Z,31.78
2018-08-28T11:31:10.161Z,31.01
2018-08-28T11:33:03.515Z,30.62
2018-08-28T11:34:03.475Z,30.05
2018-08-28T11:35:56.809Z,29.55
2018-08-28T11:36:56.784Z,30.33
2018-08-28T11:38:50.130Z,29.64
2018-08-28T11:39:50.089Z,29.44
2018-08-28T11:41:43.544Z,29.45
2018-08-28T11:42:43.406Z,29.25
2018-08-28T11:44:36.742Z,29.25
2018-08-28T11:45:36.716Z,29.56
2018-08-28T11:47:30.059Z,30.05
2018-08-28T11:48:30.020Z,29.87
2018-08-28T11:50:23.363Z,28.77
2018-08-28T11:51:23.336Z,29.34
2018-08-28T11:53:16.754Z,28.88
2018-08-28T11:54:16.636Z,28.69
2018-08-28T11:56:09.976Z,27.91
2018-08-28T11:57:09.957Z,28.31
2018-08-28T11:59:03.320Z,28.51
2018-08-28T12:00:03.277Z,27.14
2018-08-28T12:01:56.637Z,26.35
2018-08-28T12:02:56.585Z,27.06
2018-08-28T12:04:50.035Z,26.93
2018-08-28T12:05:49.909Z,27.73
2018-08-28T12:07:43.280Z,28.61
2018-08-28T12:08:43.216Z,27.74
2018-08-28T12:10:36.579Z,27.36
2018-08-28T12:11:36.536Z,27.85
2018-08-28T12:13:29.875Z,26.35
2018-08-28T12:14:29.846Z,27.42
2018-08-28T12:16:23.173Z,28.15
2018-08-28T12:17:23.165Z,28.74
2018-08-28T12:19:16.492Z,29.93
2018-08-28T12:20:16.536Z,30.23
2018-08-28T12:22:09.823Z,28.55
2018-08-28T12:23:09.773Z,28.67
2018-08-28T12:25:03.117Z,29.27
2018-08-28T12:26:03.111Z,28.40
2018-08-28T12:27:56.437Z,27.83
2018-08-28T12:28:56.407Z,27.44
2018-08-28T12:30:49.758Z,29.38
2018-08-28T12:31:49.721Z,28.79
2018-08-28T12:33:43.062Z,27.20
2018-08-28T12:34:43.038Z,27.97
2018-08-28T12:36:36.456Z,29.55
2018-08-28T12:37:36.358Z,29.75
2018-08-28T12:39:29.702Z,28.11
2018-08-28T12:40:29.665Z,29.08
2018-08-28T12:42:23.031Z,28.71
2018-08-28T12:43:22.982Z,28.82
2018-08-28T12:45:16.312Z,27.24
2018-08-28T12:46:16.375Z,27.14
2018-08-28T12:48:09.612Z,27.53
2018-08-28T12:49:09.781Z,28.33
2018-08-28T12:51:03.965Z,27.06
2018-08-28T12:52:03.908Z,27.85
2018-08-28T12:53:57.236Z,27.57
2018-08-28T12:54:57.327Z,27.28
2018-08-28T12:56:50.566Z,27.08
2018-08-28T12:57:50.539Z,27.08
2018-08-28T12:59:43.863Z,27.08
2018-08-28T13:00:43.958Z,27.37
2018-08-28T13:02:37.193Z,27.28
2018-08-28T13:03:37.158Z,26.69
2018-08-28T13:05:30.515Z,27.64
2018-08-28T13:06:30.497Z,27.63
2018-08-28T13:08:23.866Z,28.43
2018-08-28T13:09:23.824Z,27.64
2018-08-28T13:11:17.163Z,28.63
2018-08-28T13:12:17.148Z,27.55
2018-08-28T13:14:11.492Z,28.33
2018-08-28T13:15:11.471Z,27.55
2018-08-28T13:17:04.788Z,26.45
2018-08-28T13:18:04.783Z,27.34
2018-08-28T13:19:58.257Z,27.25
2018-08-28T13:20:58.175Z,27.15
2018-08-28T13:22:52.554Z,26.05
2018-08-28T13:23:52.524Z,27.12
2018-08-28T13:25:45.915Z,27.63
2018-08-28T13:26:45.827Z,27.34
2018-08-28T13:28:40.169Z,27.23
2018-08-28T13:29:40.143Z,28.30
2018-08-28T13:31:33.488Z,28.82
2018-08-28T13:32:33.465Z,28.53
2018-08-28T13:34:26.784Z,27.06
2018-08-28T13:35:26.764Z,27.45
2018-08-28T13:37:20.125Z,27.42
2018-08-28T13:38:20.079Z,28.22
2018-08-28T13:40:13.450Z,26.75
2018-08-28T13:41:13.394Z,26.45
2018-08-28T13:43:06.728Z,27.72
2018-08-28T13:44:06.705Z,27.33
2018-08-28T13:46:00.042Z,28.16
2018-08-28T13:47:00.097Z,28.34
2018-08-28T13:48:53.330Z,30.23
2018-08-28T13:49:53.321Z,28.38
2018-08-28T13:51:46.649Z,31.21
2018-08-28T13:52:46.610Z,29.46
2018-08-28T13:54:39.971Z,29.46
2018-08-28T13:55:39.937Z,27.31
2018-08-28T13:57:33.290Z,28.29
2018-08-28T13:58:33.263Z,28.29
2018-08-28T14:00:26.625Z,26.82
2018-08-28T14:01:26.573Z,27.01
2018-08-28T14:03:19.896Z,27.87
2018-08-28T14:04:19.876Z,27.76
2018-08-28T14:06:13.238Z,28.64
2018-08-28T14:07:13.200Z,28.74
2018-08-28T14:09:06.530Z,31.00
2018-08-28T14:10:06.513Z,29.16
2018-08-28T14:11:59.883Z,28.00
2018-08-28T14:12:59.815Z,27.39
2018-08-28T14:14:53.241Z,27.39
2018-08-28T14:15:53.111Z,28.28
2018-08-28T14:17:46.465Z,28.49
2018-08-28T14:18:46.429Z,28.68
2018-08-28T14:20:39.755Z,27.49
2018-08-28T14:21:39.727Z,28.22
2018-08-28T14:23:34.082Z,29.81
2018-08-28T14:24:34.049Z,29.22
2018-08-28T14:26:27.396Z,29.24
2018-08-28T14:27:27.349Z,29.94
2018-08-28T14:29:20.730Z,28.38
2018-08-28T14:30:20.665Z,27.78
2018-08-28T14:32:14.015Z,27.17
2018-08-28T14:33:13.965Z,27.56
2018-08-28T14:35:07.302Z,28.59
2018-08-28T14:36:07.347Z,29.36
2018-08-28T14:38:00.623Z,29.86
2018-08-28T14:39:00.587Z,29.86
2018-08-28T14:40:53.924Z,30.84
2018-08-28T14:41:53.900Z,30.16
2018-08-28T14:43:47.249Z,30.57
2018-08-28T14:44:47.196Z,30.96
2018-08-28T14:46:41.524Z,30.29
2018-08-28T14:47:41.488Z,29.91
2018-08-28T14:49:34.838Z,28.44
2018-08-28T14:50:34.851Z,28.25
2018-08-28T14:52:28.139Z,29.21
2018-08-28T14:53:28.112Z,29.99
2018-08-28T14:55:21.440Z,28.72
2018-08-28T14:56:21.429Z,29.70
2018-08-28T14:58:14.769Z,29.69
2018-08-28T14:59:14.704Z,29.50
2018-08-28T15:01:08.034Z,29.13
2018-08-28T15:02:08.017Z,29.21
2018-08-28T15:04:01.466Z,29.91
2018-08-28T15:05:01.320Z,28.71
2018-08-28T15:06:54.747Z,29.79
2018-08-28T15:07:54.641Z,29.49
2018-08-28T15:09:48.966Z,29.36
2018-08-28T15:10:48.930Z,30.63
2018-08-28T15:12:42.246Z,30.70
2018-08-28T15:13:42.235Z,31.74
2018-08-28T15:15:35.581Z,33.61
2018-08-28T15:16:35.560Z,32.75
2018-08-28T15:18:28.856Z,30.71
2018-08-28T15:19:28.841Z,30.71
2018-08-28T15:21:23.177Z,31.28
2018-08-28T15:22:23.137Z,31.46
2018-08-28T15:24:16.462Z,32.23
2018-08-28T15:25:16.438Z,33.11
2018-08-28T15:27:09.779Z,32.42
2018-08-28T15:28:09.738Z,33.31
2018-08-28T15:30:03.087Z,32.52
2018-08-28T15:31:03.043Z,33.12
2018-08-28T15:32:56.366Z,33.11
2018-08-28T15:33:56.341Z,33.38
2018-08-28T15:35:49.678Z,34.33
2018-08-28T15:36:49.641Z,34.42
2018-08-28T15:38:43.186Z,35.02
2018-08-28T15:39:42.936Z,35.13
2018-08-28T15:41:36.273Z,34.52
2018-08-28T15:42:36.231Z,35.49
2018-08-28T15:44:29.555Z,35.39
2018-08-28T15:45:29.532Z,35.58
2018-08-28T15:47:23.869Z,36.08
2018-08-28T15:48:23.832Z,36.02
2018-08-28T15:50:17.152Z,33.11
2018-08-28T15:51:17.196Z,33.38
2018-08-28T15:53:10.483Z,34.43
2018-08-28T15:54:10.425Z,34.53
2018-08-28T15:56:03.790Z,35.58
2018-08-28T15:57:03.714Z,35.58
2018-08-28T15:58:57.074Z,36.07
2018-08-28T15:59:57.028Z,35.68
2018-08-28T16:01:50.359Z,35.86
2018-08-28T16:02:50.319Z,35.49
2018-08-28T16:04:43.725Z,35.19
2018-08-28T16:05:43.618Z,35.49
2018-08-28T16:07:36.953Z,35.58
2018-08-28T16:08:36.915Z,36.15
2018-08-28T16:10:30.251Z,36.22
2018-08-28T16:11:30.244Z,36.24
2018-08-28T16:13:23.563Z,35.96
2018-08-28T16:14:23.524Z,35.86
2018-08-28T16:16:17.869Z,36.16
2018-08-28T16:17:17.815Z,35.78
2018-08-28T16:19:11.161Z,35.80
2018-08-28T16:20:11.106Z,35.61
2018-08-28T16:22:04.464Z,35.31
2018-08-28T16:23:04.418Z,35.60
2018-08-28T16:24:57.751Z,34.64
2018-08-28T16:25:57.741Z,34.43
2018-08-28T16:27:51.083Z,35.97
2018-08-28T16:28:51.032Z,35.99
2018-08-28T16:30:44.367Z,35.99
2018-08-28T16:31:44.345Z,35.71
2018-08-28T16:33:37.679Z,34.45
2018-08-28T16:34:37.636Z,34.64
2018-08-28T16:36:30.960Z,34.84
2018-08-28T16:37:30.936Z,34.53
2018-08-28T16:39:24.304Z,35.97
2018-08-28T16:40:24.228Z,35.88
2018-08-28T16:42:17.561Z,36.05
2018-08-28T16:43:17.526Z,36.26
2018-08-28T16:45:10.856Z,37.04
2018-08-28T16:46:10.830Z,36.65
2018-08-28T16:48:04.157Z,37.26
2018-08-28T16:49:04.115Z,35.88
2018-08-28T16:50:57.432Z,36.46
2018-08-28T16:51:57.419Z,36.05
2018-08-28T16:53:50.757Z,36.32
2018-08-28T16:54:50.701Z,37.22
2018-08-28T16:56:44.053Z,36.44
2018-08-28T16:57:43.998Z,37.02
2018-08-28T16:59:37.337Z,37.49
2018-08-28T17:00:37.313Z,37.86
2018-08-28T17:02:30.641Z,37.76
2018-08-28T17:03:30.598Z,38.54
2018-08-28T17:05:23.932Z,38.62
2018-08-28T17:06:23.883Z,39.01
2018-08-28T17:08:17.232Z,39.69
2018-08-28T17:09:17.193Z,39.86
2018-08-28T17:11:10.541Z,40.17
2018-08-28T17:12:10.541Z,39.88
2018-08-28T17:14:03.812Z,39.49
2018-08-28T17:15:03.792Z,39.59
2018-08-28T17:16:57.119Z,40.54
2018-08-28T17:17:57.073Z,40.33
2018-08-28T17:19:50.398Z,40.54
2018-08-28T17:20:50.375Z,40.71
2018-08-28T17:22:43.708Z,40.83
2018-08-28T17:23:43.652Z,40.83
2018-08-28T17:25:36.988Z,40.61
2018-08-28T17:26:36.939Z,40.81
2018-08-28T17:28:30.259Z,41.39
2018-08-28T17:29:30.233Z,40.52
2018-08-28T17:31:23.572Z,41.30
2018-08-28T17:32:23.527Z,41.30
2018-08-28T17:34:16.867Z,42.07
2018-08-28T17:35:16.813Z,41.95
2018-08-28T17:37:10.252Z,42.44
2018-08-28T17:38:10.100Z,43.12
2018-08-28T17:40:03.447Z,43.09
2018-08-28T17:41:03.373Z,42.90
2018-08-28T17:42:56.731Z,43.00
2018-08-28T17:43:56.682Z,43.19
2018-08-28T17:45:50.012Z,43.87
2018-08-28T17:46:49.960Z,43.96
2018-08-28T17:48:43.334Z,44.16
2018-08-28T17:49:43.244Z,44.35
2018-08-28T17:51:36.583Z,45.40
2018-08-28T17:52:36.533Z,45.30
2018-08-28T17:54:29.865Z,45.40
2018-08-28T17:55:29.835Z,45.78
2018-08-28T17:57:23.169Z,45.20
2018-08-28T17:58:23.121Z,45.30
2018-08-28T18:00:16.459Z,45.98
2018-08-28T18:01:16.444Z,45.40
2018-08-28T18:03:09.760Z,45.86
2018-08-28T18:04:09.727Z,46.25
2018-08-28T18:06:03.054Z,47.02
2018-08-28T18:07:03.001Z,46.44
2018-08-28T18:08:56.349Z,47.11
2018-08-28T18:09:56.303Z,46.80
2018-08-28T18:11:49.635Z,47.28
2018-08-28T18:12:49.584Z,46.80
2018-08-28T18:14:42.922Z,47.86
2018-08-28T18:15:42.875Z,48.13
2018-08-28T18:17:36.206Z,47.84
2018-08-28T18:18:36.159Z,47.84
2018-08-28T18:20:29.486Z,47.74
2018-08-28T18:21:29.458Z,47.84
2018-08-28T18:23:22.792Z,48.61
2018-08-28T18:24:22.765Z,48.61
2018-08-28T18:26:16.161Z,48.81
2018-08-28T18:27:16.035Z,48.52
2018-08-28T18:29:09.356Z,48.97
2018-08-28T18:30:09.315Z,49.00
2018-08-28T18:32:02.628Z,49.46
2018-08-28T18:33:02.599Z,49.95
2018-08-28T18:34:55.926Z,50.52